EGLF

Farnborough Airport

Farnborough, United Kingdom
METAR EGLF 181620Z 29004KT CAVOK 04/03 Q1031
Observed Flight Rules
Dec-18 @ 16:20 UTC (25 minutes ago) Visual Flight Rules
Wind Visibility Clouds
290° at 4 knots 10,000+ meters
  • Clear skies
Temperatures Readings
Current 4°C / 39°F
Dewpoint 3°C / 37°F
Humidity 93%
Altimeter 30.44" Hg
Pressure 1031 hPa
Elevation 65
METAR EGLF 181620Z 29004KT CAVOK 04/03 Q1031
Observed Flight Rules
Dec-18 @ 16:20 UTC
(25 minutes ago)
VFR
Wind Visibility
290° at 4 knots 10,000+ meters
Clouds
  • Clear skies
Temperature Dewpoint
4°C / 39°F 3°C / 37°F
Humidity Altimeter Pressure
93% 30.44" Hg 1031 hPa